Holmdel Village, New Jersey
Current Conditions -  °F | °C
As of 4:15 AM on Wednesday 22 Oct 2014 (Local Time) from KBLM Reporting Station
Thunderstorm Thunderstorm  
Wind Chill: 55°   Ceiling: 7000
Heat Index: 55°   Visibility: 10mi
Dew Point: 50°   Wind: 8mph
Humidity: 82%   Direction: 10°N
Pressure: 29.83"   Gusts: NA
Location:  40.3764°N, 74.1727°W
Report Text: KBLM 220815Z AUTO 01007KT 10SM TS SCT014 SCT039 OVC070 13/10 A2983 RMK AO1 LTG DSNT ALQDS P0004
Loading
Personal Weather Stations






























Interactive Weather Map New forecast layout! Learn more

10-Day Weather Forecast

Advertisements
Track Severe Weather on mobile